sensor_id;sensor_type;location;lat;lon;timestamp;pressure;altitude;pressure_sealevel;temperature;humidity
16738;BME280;17906;47.684;10.806;2022-12-20T00:01:29;93911.19;;;-3.27;100.00
16738;BME280;17906;47.684;10.806;2022-12-20T00:03:58;93917.47;;;-3.28;100.00
16738;BME280;17906;47.684;10.806;2022-12-20T00:06:26;93918.56;;;-3.30;100.00
16738;BME280;17906;47.684;10.806;2022-12-20T00:08:54;93921.81;;;-3.36;100.00
16738;BME280;17906;47.684;10.806;2022-12-20T00:11:23;93930.72;;;-3.28;100.00
16738;BME280;17906;47.684;10.806;2022-12-20T00:13:50;93933.38;;;-3.28;100.00
16738;BME280;17906;47.684;10.806;2022-12-20T00:16:18;93934.81;;;-3.15;100.00
16738;BME280;17906;47.684;10.806;2022-12-20T00:18:45;93933.00;;;-3.15;100.00
16738;BME280;17906;47.684;10.806;2022-12-20T00:21:13;93927.94;;;-3.08;100.00
16738;BME280;17906;47.684;10.806;2022-12-20T00:23:40;93925.13;;;-3.07;100.00
16738;BME280;17906;47.684;10.806;2022-12-20T00:26:08;93939.66;;;-3.11;100.00
16738;BME280;17906;47.684;10.806;2022-12-20T00:28:38;93927.78;;;-3.07;100.00
16738;BME280;17906;47.684;10.806;2022-12-20T00:31:05;93925.00;;;-3.05;100.00
16738;BME280;17906;47.684;10.806;2022-12-20T00:33:34;93919.69;;;-3.05;100.00
16738;BME280;17906;47.684;10.806;2022-12-20T00:36:01;93916.22;;;-3.06;100.00
16738;BME280;17906;47.684;10.806;2022-12-20T00:38:28;93906.28;;;-3.04;100.00
16738;BME280;17906;47.684;10.806;2022-12-20T00:40:59;93909.69;;;-2.94;100.00
16738;BME280;17906;47.684;10.806;2022-12-20T00:43:26;93910.91;;;-3.06;100.00
16738;BME280;17906;47.684;10.806;2022-12-20T00:45:54;93905.19;;;-3.11;100.00
16738;BME280;17906;47.684;10.806;2022-12-20T00:48:21;93913.69;;;-3.07;100.00
16738;BME280;17906;47.684;10.806;2022-12-20T00:50:48;93910.34;;;-3.09;100.00
16738;BME280;17906;47.684;10.806;2022-12-20T00:53:15;93903.38;;;-3.10;100.00
16738;BME280;17906;47.684;10.806;2022-12-20T00:55:42;93899.75;;;-3.09;100.00
16738;BME280;17906;47.684;10.806;2022-12-20T00:58:09;93905.97;;;-3.01;100.00
16738;BME280;17906;47.684;10.806;2022-12-20T01:00:36;93899.94;;;-2.93;100.00
16738;BME280;17906;47.684;10.806;2022-12-20T01:03:06;93882.56;;;-2.88;100.00
16738;BME280;17906;47.684;10.806;2022-12-20T01:05:33;93872.25;;;-2.91;100.00
16738;BME280;17906;47.684;10.806;2022-12-20T01:07:59;93871.34;;;-2.81;100.00
16738;BME280;17906;47.684;10.806;2022-12-20T01:10:26;93878.00;;;-2.77;100.00
16738;BME280;17906;47.684;10.806;2022-12-20T01:12:53;93886.44;;;-2.82;100.00
16738;BME280;17906;47.684;10.806;2022-12-20T01:15:20;93896.44;;;-2.94;100.00
16738;BME280;17906;47.684;10.806;2022-12-20T01:17:47;93892.13;;;-2.95;100.00
16738;BME280;17906;47.684;10.806;2022-12-20T01:20:15;93897.50;;;-2.86;100.00
16738;BME280;17906;47.684;10.806;2022-12-20T01:22:42;93892.72;;;-2.83;100.00
16738;BME280;17906;47.684;10.806;2022-12-20T01:25:09;93887.41;;;-3.01;100.00
16738;BME280;17906;47.684;10.806;2022-12-20T01:27:35;93882.47;;;-2.96;100.00
16738;BME280;17906;47.684;10.806;2022-12-20T01:30:02;93880.91;;;-2.89;100.00
16738;BME280;17906;47.684;10.806;2022-12-20T01:32:29;93878.25;;;-2.89;100.00
16738;BME280;17906;47.684;10.806;2022-12-20T01:34:56;93888.75;;;-2.97;100.00
16738;BME280;17906;47.684;10.806;2022-12-20T01:37:24;93892.53;;;-3.17;100.00
16738;BME280;17906;47.684;10.806;2022-12-20T01:39:51;93894.75;;;-3.12;100.00
16738;BME280;17906;47.684;10.806;2022-12-20T01:42:18;93894.22;;;-3.16;100.00
16738;BME280;17906;47.684;10.806;2022-12-20T01:44:54;93897.63;;;-3.24;100.00
16738;BME280;17906;47.684;10.806;2022-12-20T01:47:22;93895.69;;;-3.31;100.00
16738;BME280;17906;47.684;10.806;2022-12-20T01:49:52;93894.72;;;-3.30;100.00
16738;BME280;17906;47.684;10.806;2022-12-20T01:52:27;93894.28;;;-3.26;100.00
16738;BME280;17906;47.684;10.806;2022-12-20T01:54:56;93893.66;;;-3.20;100.00
16738;BME280;17906;47.684;10.806;2022-12-20T01:57:30;93889.13;;;-3.27;100.00
16738;BME280;17906;47.684;10.806;2022-12-20T01:59:59;93893.75;;;-3.57;100.00
16738;BME280;17906;47.684;10.806;2022-12-20T02:02:26;93894.31;;;-3.63;100.00
16738;BME280;17906;47.684;10.806;2022-12-20T02:04:53;93889.22;;;-3.74;100.00
16738;BME280;17906;47.684;10.806;2022-12-20T02:07:23;93898.69;;;-3.71;100.00
16738;BME280;17906;47.684;10.806;2022-12-20T02:09:53;93895.09;;;-3.70;100.00
16738;BME280;17906;47.684;10.806;2022-12-20T02:12:24;93887.25;;;-3.72;100.00
16738;BME280;17906;47.684;10.806;2022-12-20T02:15:03;93877.50;;;-3.71;100.00
16738;BME280;17906;47.684;10.806;2022-12-20T02:17:44;93886.34;;;-3.81;100.00
16738;BME280;17906;47.684;10.806;2022-12-20T02:20:52;93892.09;;;-3.95;100.00
16738;BME280;17906;47.684;10.806;2022-12-20T02:29:27;93876.84;;;-3.83;100.00
16738;BME280;17906;47.684;10.806;2022-12-20T02:32:01;93871.06;;;-3.96;100.00
16738;BME280;17906;47.684;10.806;2022-12-20T02:34:32;93868.81;;;-3.91;100.00
16738;BME280;17906;47.684;10.806;2022-12-20T02:37:00;93857.63;;;-3.85;100.00
16738;BME280;17906;47.684;10.806;2022-12-20T02:39:29;93857.59;;;-3.76;100.00
16738;BME280;17906;47.684;10.806;2022-12-20T02:42:00;93848.75;;;-3.66;100.00
16738;BME280;17906;47.684;10.806;2022-12-20T02:44:29;93861.72;;;-3.63;100.00
16738;BME280;17906;47.684;10.806;2022-12-20T02:47:20;93861.81;;;-3.55;100.00
16738;BME280;17906;47.684;10.806;2022-12-20T02:49:50;93854.59;;;-3.63;100.00
16738;BME280;17906;47.684;10.806;2022-12-20T02:52:20;93857.88;;;-3.51;100.00
16738;BME280;17906;47.684;10.806;2022-12-20T02:54:49;93861.06;;;-3.48;100.00
16738;BME280;17906;47.684;10.806;2022-12-20T02:57:20;93860.38;;;-3.50;100.00
16738;BME280;17906;47.684;10.806;2022-12-20T02:59:54;93855.22;;;-3.51;100.00
16738;BME280;17906;47.684;10.806;2022-12-20T03:02:24;93857.59;;;-3.48;100.00
16738;BME280;17906;47.684;10.806;2022-12-20T03:04:52;93856.56;;;-3.65;100.00
16738;BME280;17906;47.684;10.806;2022-12-20T03:07:19;93857.63;;;-3.85;100.00
16738;BME280;17906;47.684;10.806;2022-12-20T03:09:47;93855.25;;;-3.79;100.00
16738;BME280;17906;47.684;10.806;2022-12-20T03:12:14;93850.78;;;-3.78;100.00
16738;BME280;17906;47.684;10.806;2022-12-20T03:14:41;93845.56;;;-3.97;100.00
16738;BME280;17906;47.684;10.806;2022-12-20T03:17:08;93846.84;;;-4.01;100.00
16738;BME280;17906;47.684;10.806;2022-12-20T03:19:37;93853.34;;;-3.96;100.00
16738;BME280;17906;47.684;10.806;2022-12-20T03:22:04;93843.59;;;-3.95;100.00
16738;BME280;17906;47.684;10.806;2022-12-20T03:24:31;93834.84;;;-4.06;100.00
16738;BME280;17906;47.684;10.806;2022-12-20T03:26:58;93837.13;;;-4.11;100.00
16738;BME280;17906;47.684;10.806;2022-12-20T03:29:25;93835.59;;;-4.13;100.00
16738;BME280;17906;47.684;10.806;2022-12-20T03:31:51;93835.19;;;-4.18;100.00
16738;BME280;17906;47.684;10.806;2022-12-20T03:34:18;93836.44;;;-4.13;100.00
16738;BME280;17906;47.684;10.806;2022-12-20T03:36:46;93826.84;;;-4.14;100.00
16738;BME280;17906;47.684;10.806;2022-12-20T03:39:14;93829.34;;;-4.12;100.00
16738;BME280;17906;47.684;10.806;2022-12-20T03:41:41;93819.13;;;-4.07;100.00
16738;BME280;17906;47.684;10.806;2022-12-20T03:44:07;93828.88;;;-4.08;100.00
16738;BME280;17906;47.684;10.806;2022-12-20T03:46:34;93823.88;;;-4.11;100.00
16738;BME280;17906;47.684;10.806;2022-12-20T03:49:01;93833.75;;;-4.03;100.00
16738;BME280;17906;47.684;10.806;2022-12-20T03:51:28;93829.16;;;-4.01;100.00
16738;BME280;17906;47.684;10.806;2022-12-20T03:53:56;93824.38;;;-3.97;100.00
16738;BME280;17906;47.684;10.806;2022-12-20T03:56:22;93831.75;;;-3.91;100.00
16738;BME280;17906;47.684;10.806;2022-12-20T03:58:49;93823.50;;;-3.88;100.00
16738;BME280;17906;47.684;10.806;2022-12-20T04:01:17;93825.44;;;-3.81;100.00
16738;BME280;17906;47.684;10.806;2022-12-20T04:03:44;93837.69;;;-3.80;100.00
16738;BME280;17906;47.684;10.806;2022-12-20T04:06:11;93829.44;;;-3.77;100.00
16738;BME280;17906;47.684;10.806;2022-12-20T04:08:37;93839.03;;;-3.76;100.00
16738;BME280;17906;47.684;10.806;2022-12-20T04:11:05;93837.00;;;-3.82;100.00
16738;BME280;17906;47.684;10.806;2022-12-20T04:13:45;93837.00;;;-3.82;100.00
16738;BME280;17906;47.684;10.806;2022-12-20T04:16:13;93832.91;;;-3.76;100.00
16738;BME280;17906;47.684;10.806;2022-12-20T04:18:39;93830.13;;;-3.74;100.00
16738;BME280;17906;47.684;10.806;2022-12-20T04:21:07;93834.22;;;-3.62;100.00
16738;BME280;17906;47.684;10.806;2022-12-20T04:23:36;93829.19;;;-3.56;100.00
16738;BME280;17906;47.684;10.806;2022-12-20T04:26:06;93825.53;;;-3.55;100.00
16738;BME280;17906;47.684;10.806;2022-12-20T04:28:34;93825.63;;;-3.47;100.00
16738;BME280;17906;47.684;10.806;2022-12-20T04:31:01;93822.69;;;-3.43;100.00
16738;BME280;17906;47.684;10.806;2022-12-20T04:33:28;93809.94;;;-3.58;100.00
16738;BME280;17906;47.684;10.806;2022-12-20T04:35:55;93819.19;;;-3.44;100.00
16738;BME280;17906;47.684;10.806;2022-12-20T04:38:22;93815.66;;;-3.35;100.00
16738;BME280;17906;47.684;10.806;2022-12-20T04:40:49;93795.13;;;-3.33;100.00
16738;BME280;17906;47.684;10.806;2022-12-20T04:43:18;93786.94;;;-3.39;100.00
16738;BME280;17906;47.684;10.806;2022-12-20T04:45:46;93784.06;;;-3.28;100.00
16738;BME280;17906;47.684;10.806;2022-12-20T04:48:14;93776.81;;;-3.26;100.00
16738;BME280;17906;47.684;10.806;2022-12-20T04:50:41;93782.63;;;-3.23;100.00
16738;BME280;17906;47.684;10.806;2022-12-20T04:53:10;93777.66;;;-3.26;100.00
16738;BME280;17906;47.684;10.806;2022-12-20T04:55:54;93790.94;;;-3.18;100.00
16738;BME280;17906;47.684;10.806;2022-12-20T04:58:22;93783.00;;;-3.18;100.00
16738;BME280;17906;47.684;10.806;2022-12-20T05:00:49;93780.59;;;-3.11;100.00
16738;BME280;17906;47.684;10.806;2022-12-20T05:03:17;93773.31;;;-3.09;100.00
16738;BME280;17906;47.684;10.806;2022-12-20T05:05:44;93771.25;;;-2.97;100.00
16738;BME280;17906;47.684;10.806;2022-12-20T05:08:10;93761.19;;;-2.94;100.00
16738;BME280;17906;47.684;10.806;2022-12-20T05:10:37;93760.53;;;-2.88;100.00
16738;BME280;17906;47.684;10.806;2022-12-20T05:13:04;93746.09;;;-2.93;100.00
16738;BME280;17906;47.684;10.806;2022-12-20T05:15:32;93740.25;;;-2.97;100.00
16738;BME280;17906;47.684;10.806;2022-12-20T05:17:59;93742.06;;;-2.97;100.00
16738;BME280;17906;47.684;10.806;2022-12-20T05:20:27;93748.59;;;-2.92;100.00
16738;BME280;17906;47.684;10.806;2022-12-20T05:22:53;93749.75;;;-2.94;100.00
16738;BME280;17906;47.684;10.806;2022-12-20T05:25:38;93741.66;;;-2.84;100.00
16738;BME280;17906;47.684;10.806;2022-12-20T05:28:19;93736.25;;;-2.75;100.00
16738;BME280;17906;47.684;10.806;2022-12-20T05:30:47;93744.75;;;-2.71;100.00
16738;BME280;17906;47.684;10.806;2022-12-20T05:33:13;93754.38;;;-2.70;100.00
16738;BME280;17906;47.684;10.806;2022-12-20T05:35:40;93746.09;;;-2.67;100.00
16738;BME280;17906;47.684;10.806;2022-12-20T05:38:07;93741.84;;;-2.60;100.00
16738;BME280;17906;47.684;10.806;2022-12-20T05:40:33;93734.72;;;-2.60;100.00
16738;BME280;17906;47.684;10.806;2022-12-20T05:43:00;93746.75;;;-2.73;100.00
16738;BME280;17906;47.684;10.806;2022-12-20T05:45:27;93743.53;;;-2.77;100.00
16738;BME280;17906;47.684;10.806;2022-12-20T05:47:55;93735.91;;;-2.80;100.00
16738;BME280;17906;47.684;10.806;2022-12-20T05:50:21;93742.03;;;-2.79;100.00
16738;BME280;17906;47.684;10.806;2022-12-20T05:52:48;93746.56;;;-2.72;100.00
16738;BME280;17906;47.684;10.806;2022-12-20T05:55:15;93749.13;;;-2.62;100.00
16738;BME280;17906;47.684;10.806;2022-12-20T05:57:42;93747.66;;;-2.56;100.00
16738;BME280;17906;47.684;10.806;2022-12-20T06:00:09;93737.56;;;-2.53;100.00
16738;BME280;17906;47.684;10.806;2022-12-20T06:02:37;93748.50;;;-2.56;100.00
16738;BME280;17906;47.684;10.806;2022-12-20T06:05:06;93743.84;;;-2.54;100.00
16738;BME280;17906;47.684;10.806;2022-12-20T06:07:33;93746.50;;;-2.54;100.00
16738;BME280;17906;47.684;10.806;2022-12-20T06:09:59;93741.47;;;-2.65;100.00
16738;BME280;17906;47.684;10.806;2022-12-20T06:12:26;93739.38;;;-2.79;100.00
16738;BME280;17906;47.684;10.806;2022-12-20T06:14:53;93731.38;;;-2.88;100.00
16738;BME280;17906;47.684;10.806;2022-12-20T06:17:19;93726.06;;;-2.88;100.00
16738;BME280;17906;47.684;10.806;2022-12-20T06:19:46;93721.44;;;-2.85;100.00
16738;BME280;17906;47.684;10.806;2022-12-20T06:22:15;93726.84;;;-2.69;100.00
16738;BME280;17906;47.684;10.806;2022-12-20T06:24:41;93728.84;;;-2.71;100.00
16738;BME280;17906;47.684;10.806;2022-12-20T06:27:08;93724.53;;;-2.72;100.00
16738;BME280;17906;47.684;10.806;2022-12-20T06:29:35;93726.69;;;-2.68;100.00
16738;BME280;17906;47.684;10.806;2022-12-20T06:32:02;93728.19;;;-2.65;100.00
16738;BME280;17906;47.684;10.806;2022-12-20T06:34:30;93722.13;;;-2.57;100.00
16738;BME280;17906;47.684;10.806;2022-12-20T06:36:57;93724.59;;;-2.56;100.00
16738;BME280;17906;47.684;10.806;2022-12-20T06:39:25;93720.63;;;-2.60;100.00
16738;BME280;17906;47.684;10.806;2022-12-20T06:41:52;93718.84;;;-2.51;100.00
16738;BME280;17906;47.684;10.806;2022-12-20T06:44:19;93720.41;;;-2.67;100.00
16738;BME280;17906;47.684;10.806;2022-12-20T06:46:45;93720.97;;;-2.81;100.00
16738;BME280;17906;47.684;10.806;2022-12-20T06:49:12;93720.03;;;-2.72;100.00
16738;BME280;17906;47.684;10.806;2022-12-20T06:51:39;93719.09;;;-2.89;100.00
16738;BME280;17906;47.684;10.806;2022-12-20T06:54:05;93716.53;;;-2.98;100.00
16738;BME280;17906;47.684;10.806;2022-12-20T06:56:33;93715.19;;;-3.02;100.00
16738;BME280;17906;47.684;10.806;2022-12-20T06:59:00;93711.63;;;-2.93;100.00
16738;BME280;17906;47.684;10.806;2022-12-20T07:01:27;93702.72;;;-2.84;100.00
16738;BME280;17906;47.684;10.806;2022-12-20T07:03:54;93702.91;;;-2.77;100.00
16738;BME280;17906;47.684;10.806;2022-12-20T07:06:20;93697.84;;;-2.71;100.00
16738;BME280;17906;47.684;10.806;2022-12-20T07:08:47;93696.69;;;-2.68;100.00
16738;BME280;17906;47.684;10.806;2022-12-20T07:11:15;93706.47;;;-2.69;100.00
16738;BME280;17906;47.684;10.806;2022-12-20T07:13:44;93696.56;;;-2.84;100.00
16738;BME280;17906;47.684;10.806;2022-12-20T07:16:10;93696.94;;;-2.79;100.00
16738;BME280;17906;47.684;10.806;2022-12-20T07:18:37;93697.00;;;-2.71;100.00
16738;BME280;17906;47.684;10.806;2022-12-20T07:21:05;93688.97;;;-2.79;100.00
16738;BME280;17906;47.684;10.806;2022-12-20T07:23:31;93709.78;;;-2.67;100.00
16738;BME280;17906;47.684;10.806;2022-12-20T07:25:59;93706.47;;;-2.69;100.00
16738;BME280;17906;47.684;10.806;2022-12-20T07:28:28;93707.19;;;-2.58;100.00
16738;BME280;17906;47.684;10.806;2022-12-20T07:30:59;93717.69;;;-2.49;100.00
16738;BME280;17906;47.684;10.806;2022-12-20T07:33:26;93716.69;;;-2.48;100.00
16738;BME280;17906;47.684;10.806;2022-12-20T07:35:59;93714.09;;;-2.40;100.00
16738;BME280;17906;47.684;10.806;2022-12-20T07:38:26;93709.63;;;-2.31;100.00
16738;BME280;17906;47.684;10.806;2022-12-20T07:40:53;93714.59;;;-2.36;100.00
16738;BME280;17906;47.684;10.806;2022-12-20T07:43:19;93708.78;;;-2.32;100.00
16738;BME280;17906;47.684;10.806;2022-12-20T07:45:46;93711.19;;;-2.12;100.00
16738;BME280;17906;47.684;10.806;2022-12-20T07:48:14;93722.31;;;-2.17;100.00
16738;BME280;17906;47.684;10.806;2022-12-20T07:50:41;93713.16;;;-2.22;100.00
16738;BME280;17906;47.684;10.806;2022-12-20T07:53:08;93714.63;;;-2.28;100.00
16738;BME280;17906;47.684;10.806;2022-12-20T07:55:36;93709.50;;;-2.29;100.00
16738;BME280;17906;47.684;10.806;2022-12-20T07:58:06;93708.50;;;-2.20;100.00
16738;BME280;17906;47.684;10.806;2022-12-20T08:00:33;93706.03;;;-2.22;100.00
16738;BME280;17906;47.684;10.806;2022-12-20T08:03:04;93713.31;;;-2.24;100.00
16738;BME280;17906;47.684;10.806;2022-12-20T08:05:36;93705.56;;;-2.09;100.00
16738;BME280;17906;47.684;10.806;2022-12-20T08:08:05;93707.75;;;-2.05;100.00
16738;BME280;17906;47.684;10.806;2022-12-20T08:10:33;93720.06;;;-1.95;100.00
16738;BME280;17906;47.684;10.806;2022-12-20T08:13:00;93706.28;;;-1.91;100.00
16738;BME280;17906;47.684;10.806;2022-12-20T08:15:27;93703.00;;;-1.77;100.00
16738;BME280;17906;47.684;10.806;2022-12-20T08:17:54;93700.72;;;-1.72;100.00
16738;BME280;17906;47.684;10.806;2022-12-20T08:20:21;93702.19;;;-1.69;100.00
16738;BME280;17906;47.684;10.806;2022-12-20T08:22:49;93699.53;;;-1.69;100.00
16738;BME280;17906;47.684;10.806;2022-12-20T08:25:16;93699.72;;;-1.70;100.00
16738;BME280;17906;47.684;10.806;2022-12-20T08:27:42;93700.22;;;-1.67;100.00
16738;BME280;17906;47.684;10.806;2022-12-20T08:30:10;93700.91;;;-1.65;100.00
16738;BME280;17906;47.684;10.806;2022-12-20T08:32:37;93704.88;;;-1.61;100.00
16738;BME280;17906;47.684;10.806;2022-12-20T08:35:05;93707.72;;;-1.46;100.00
16738;BME280;17906;47.684;10.806;2022-12-20T08:37:32;93700.25;;;-1.42;100.00
16738;BME280;17906;47.684;10.806;2022-12-20T08:40:00;93695.63;;;-1.32;100.00
16738;BME280;17906;47.684;10.806;2022-12-20T08:42:27;93705.91;;;-1.13;100.00
16738;BME280;17906;47.684;10.806;2022-12-20T08:44:54;93696.09;;;-1.04;100.00
16738;BME280;17906;47.684;10.806;2022-12-20T08:47:20;93688.63;;;-1.01;100.00
16738;BME280;17906;47.684;10.806;2022-12-20T08:49:47;93696.59;;;-0.93;100.00
16738;BME280;17906;47.684;10.806;2022-12-20T08:52:14;93682.16;;;-1.06;100.00
16738;BME280;17906;47.684;10.806;2022-12-20T08:54:41;93688.47;;;-0.99;100.00
16738;BME280;17906;47.684;10.806;2022-12-20T08:57:09;93690.28;;;-0.92;100.00
16738;BME280;17906;47.684;10.806;2022-12-20T08:59:35;93684.44;;;-0.79;100.00
16738;BME280;17906;47.684;10.806;2022-12-20T09:02:02;93685.94;;;-0.76;100.00
16738;BME280;17906;47.684;10.806;2022-12-20T09:04:29;93674.78;;;-0.80;100.00
16738;BME280;17906;47.684;10.806;2022-12-20T09:06:56;93685.25;;;-0.62;100.00
16738;BME280;17906;47.684;10.806;2022-12-20T09:09:22;93676.06;;;-0.43;100.00
16738;BME280;17906;47.684;10.806;2022-12-20T09:11:50;93679.03;;;-0.38;100.00
16738;BME280;17906;47.684;10.806;2022-12-20T09:14:18;93675.41;;;-0.45;100.00
16738;BME280;17906;47.684;10.806;2022-12-20T09:16:45;93675.63;;;-0.24;100.00
16738;BME280;17906;47.684;10.806;2022-12-20T09:19:13;93674.75;;;-0.08;100.00
16738;BME280;17906;47.684;10.806;2022-12-20T09:21:40;93674.75;;;-0.08;99.68
16738;BME280;17906;47.684;10.806;2022-12-20T09:24:08;93675.94;;;-0.11;100.00
16738;BME280;17906;47.684;10.806;2022-12-20T09:26:34;93670.84;;;0.11;100.00
16738;BME280;17906;47.684;10.806;2022-12-20T09:29:01;93677.50;;;0.07;100.00
16738;BME280;17906;47.684;10.806;2022-12-20T09:31:29;93682.94;;;-0.10;99.37
16738;BME280;17906;47.684;10.806;2022-12-20T09:33:57;93675.38;;;0.02;99.64
16738;BME280;17906;47.684;10.806;2022-12-20T09:36:27;93670.69;;;0.04;100.00
16738;BME280;17906;47.684;10.806;2022-12-20T09:38:54;93670.84;;;0.11;99.67
16738;BME280;17906;47.684;10.806;2022-12-20T09:41:26;93658.34;;;0.11;100.00
16738;BME280;17906;47.684;10.806;2022-12-20T09:43:54;93654.69;;;0.35;100.00
16738;BME280;17906;47.684;10.806;2022-12-20T09:46:21;93664.72;;;0.33;100.00
16738;BME280;17906;47.684;10.806;2022-12-20T09:48:51;93659.22;;;0.35;100.00
16738;BME280;17906;47.684;10.806;2022-12-20T09:51:38;93669.97;;;0.41;100.00
16738;BME280;17906;47.684;10.806;2022-12-20T09:54:16;93662.34;;;0.38;100.00
16738;BME280;17906;47.684;10.806;2022-12-20T09:56:55;93656.28;;;0.52;100.00
16738;BME280;17906;47.684;10.806;2022-12-20T09:59:23;93663.13;;;0.70;100.00
16738;BME280;17906;47.684;10.806;2022-12-20T10:01:50;93653.50;;;0.83;99.97
16738;BME280;17906;47.684;10.806;2022-12-20T10:04:21;93646.94;;;0.71;98.82
16738;BME280;17906;47.684;10.806;2022-12-20T10:06:57;93651.19;;;1.03;98.70
16738;BME280;17906;47.684;10.806;2022-12-20T10:09:53;93649.09;;;1.13;98.43
16738;BME280;17906;47.684;10.806;2022-12-20T10:12:28;93644.09;;;0.96;98.89
16738;BME280;17906;47.684;10.806;2022-12-20T10:15:13;93636.81;;;1.04;97.77
16738;BME280;17906;47.684;10.806;2022-12-20T10:17:58;93632.22;;;0.98;98.69
16738;BME280;17906;47.684;10.806;2022-12-20T10:20:43;93624.56;;;0.95;99.68
16738;BME280;17906;47.684;10.806;2022-12-20T10:23:17;93621.44;;;1.06;98.42
16738;BME280;17906;47.684;10.806;2022-12-20T10:25:48;93622.31;;;1.07;97.86
16738;BME280;17906;47.684;10.806;2022-12-20T10:28:16;93611.38;;;1.31;97.42
16738;BME280;17906;47.684;10.806;2022-12-20T10:30:43;93614.69;;;1.18;97.85
16738;BME280;17906;47.684;10.806;2022-12-20T10:33:15;93614.38;;;1.13;98.16
16738;BME280;17906;47.684;10.806;2022-12-20T10:35:45;93598.66;;;1.18;97.02
16738;BME280;17906;47.684;10.806;2022-12-20T10:38:13;93585.31;;;1.33;95.83
16738;BME280;17906;47.684;10.806;2022-12-20T10:40:44;93582.63;;;1.33;96.30
16738;BME280;17906;47.684;10.806;2022-12-20T10:43:14;93585.66;;;1.45;95.35
16738;BME280;17906;47.684;10.806;2022-12-20T10:45:42;93573.53;;;1.42;95.42
16738;BME280;17906;47.684;10.806;2022-12-20T10:48:25;93567.06;;;1.22;96.26
16738;BME280;17906;47.684;10.806;2022-12-20T10:51:14;93568.34;;;1.26;96.43
16738;BME280;17906;47.684;10.806;2022-12-20T10:53:57;93568.56;;;1.39;96.38
16738;BME280;17906;47.684;10.806;2022-12-20T10:56:25;93572.47;;;1.58;95.48
16738;BME280;17906;47.684;10.806;2022-12-20T10:58:55;93563.28;;;1.61;96.13
16738;BME280;17906;47.684;10.806;2022-12-20T11:01:25;93557.94;;;1.61;95.90
16738;BME280;17906;47.684;10.806;2022-12-20T11:03:55;93542.75;;;1.46;96.08
16738;BME280;17906;47.684;10.806;2022-12-20T11:06:27;93548.38;;;1.37;96.87
16738;BME280;17906;47.684;10.806;2022-12-20T11:09:11;93538.34;;;1.24;98.02
16738;BME280;17906;47.684;10.806;2022-12-20T11:11:38;93528.66;;;1.23;98.75
16738;BME280;17906;47.684;10.806;2022-12-20T11:14:13;93519.81;;;0.93;99.11
16738;BME280;17906;47.684;10.806;2022-12-20T11:16:41;93527.38;;;1.04;97.78
16738;BME280;17906;47.684;10.806;2022-12-20T11:19:30;93525.91;;;1.16;97.24
16738;BME280;17906;47.684;10.806;2022-12-20T11:22:08;93519.09;;;1.14;99.09
16738;BME280;17906;47.684;10.806;2022-12-20T11:24:44;93508.91;;;1.17;98.20
16738;BME280;17906;47.684;10.806;2022-12-20T11:27:20;93501.78;;;1.25;98.12
16738;BME280;17906;47.684;10.806;2022-12-20T11:30:05;93504.56;;;1.31;97.74
16738;BME280;17906;47.684;10.806;2022-12-20T11:32:44;93499.41;;;1.30;98.64
16738;BME280;17906;47.684;10.806;2022-12-20T11:35:18;93486.13;;;1.36;98.40
16738;BME280;17906;47.684;10.806;2022-12-20T11:37:54;93479.50;;;1.32;97.66
16738;BME280;17906;47.684;10.806;2022-12-20T11:40:28;93479.22;;;1.27;97.71
16738;BME280;17906;47.684;10.806;2022-12-20T11:43:21;93477.00;;;1.16;98.20
16738;BME280;17906;47.684;10.806;2022-12-20T11:46:13;93472.59;;;1.23;97.81
16738;BME280;17906;47.684;10.806;2022-12-20T11:48:55;93453.91;;;1.23;98.90
16738;BME280;17906;47.684;10.806;2022-12-20T11:51:29;93455.28;;;1.34;99.12
16738;BME280;17906;47.684;10.806;2022-12-20T11:54:08;93459.22;;;1.38;97.91
16738;BME280;17906;47.684;10.806;2022-12-20T11:56:37;93455.75;;;1.23;100.00
16738;BME280;17906;47.684;10.806;2022-12-20T11:59:11;93457.03;;;1.27;99.99
16738;BME280;17906;47.684;10.806;2022-12-20T12:01:44;93451.44;;;1.22;98.79
16738;BME280;17906;47.684;10.806;2022-12-20T12:04:16;93454.53;;;1.25;98.17
16738;BME280;17906;47.684;10.806;2022-12-20T12:06:47;93449.50;;;1.30;98.67
16738;BME280;17906;47.684;10.806;2022-12-20T12:09:22;93453.47;;;1.19;99.37
16738;BME280;17906;47.684;10.806;2022-12-20T12:11:54;93438.19;;;1.13;99.72
16738;BME280;17906;47.684;10.806;2022-12-20T12:14:30;93443.97;;;1.32;99.24
16738;BME280;17906;47.684;10.806;2022-12-20T12:17:07;93434.63;;;1.42;99.21
16738;BME280;17906;47.684;10.806;2022-12-20T12:19:36;93423.13;;;1.27;98.30
16738;BME280;17906;47.684;10.806;2022-12-20T12:22:11;93431.16;;;1.27;98.38
16738;BME280;17906;47.684;10.806;2022-12-20T12:24:46;93427.22;;;1.23;99.60
16738;BME280;17906;47.684;10.806;2022-12-20T12:27:21;93426.81;;;1.26;98.89
16738;BME280;17906;47.684;10.806;2022-12-20T12:29:49;93422.72;;;1.09;99.53
16738;BME280;17906;47.684;10.806;2022-12-20T12:32:20;93425.41;;;0.94;100.00
16738;BME280;17906;47.684;10.806;2022-12-20T12:35:07;93428.50;;;1.12;100.00
16738;BME280;17906;47.684;10.806;2022-12-20T12:38:14;93423.13;;;1.27;100.00
16738;BME280;17906;47.684;10.806;2022-12-20T12:43:46;93416.41;;;1.31;100.00
16738;BME280;17906;47.684;10.806;2022-12-20T12:46:17;93405.56;;;1.33;100.00
16738;BME280;17906;47.684;10.806;2022-12-20T12:48:50;93408.34;;;1.46;100.00
16738;BME280;17906;47.684;10.806;2022-12-20T12:51:23;93405.50;;;1.47;100.00
16738;BME280;17906;47.684;10.806;2022-12-20T12:53:53;93397.22;;;1.42;100.00
16738;BME280;17906;47.684;10.806;2022-12-20T12:56:43;93399.50;;;1.24;98.86
16738;BME280;17906;47.684;10.806;2022-12-20T12:59:41;93412.31;;;1.14;99.85
16738;BME280;17906;47.684;10.806;2022-12-20T13:02:49;93393.84;;;0.98;100.00
16738;BME280;17906;47.684;10.806;2022-12-20T13:05:33;93389.59;;;1.03;100.00
16738;BME280;17906;47.684;10.806;2022-12-20T13:08:01;93397.41;;;1.19;100.00
16738;BME280;17906;47.684;10.806;2022-12-20T13:10:55;93387.06;;;1.31;100.00